KFFO/FFO METAR and TAF weather

Enter ICAO airport designator
Station Type Date Time Source
KFFO METAR 2019/08/22 03:56 UTC NOAA

KFFO 220356Z AUTO 31003KT 10SM OVC190 24/20 A2998 RMK AO2 SLP149 T02380203


Station Type Date Time Source
KFFO Decoded METAR 2019/08/22 03:56 UTC NOAA

Station name not available
Aug 21, 2019 - 11:56 PM EDT / 2019.08.22 0356 UTC
Wind: from the NW (310 degrees) at 3 MPH (3 KT):0
Visibility: 10 mile(s):0
Sky conditions: overcast
Temperature: 74.8 F (23.8 C)
Dew Point: 68.5 F (20.3 C)
Relative Humidity: 80%
Pressure (altimeter): 29.98 in. Hg (1015 hPa)
ob: KFFO 220356Z AUTO 31003KT 10SM OVC190 24/20 A2998 RMK AO2 SLP149 T02380203
cycle: 4

Station Type Date Time Source
KFFO TAF 2019/08/22 03:13 UTC NOAA

TAF KFFO 220300Z 2203/2309 VRB06KT 9999 FEW035 QNH2995INS
BECMG 2208/2209 21009KT 9000 -SHRA OVC035 QNH2982INS
BECMG 2212/2213 24009KT 9999 NSW BKN035 QNH2980INS
TEMPO 2219/2223 27012G18KT 6000 -TSRA OVC035CB TX26/2219Z TN20/2210Z

Example: see airport list